• Join FlightAware (Why Join?)
  • Login
  • US Flag 
06:56PM EDT


 

Airport Tracker/Info


-or-


 

Live Flight TrackerFlight Track Log ✈ UAL407 ✈ 15-May-2013 ✈ KORD - KPDX

Flight Track Log - Related Links

Times and Time Zones

All times are in EDT time to prevent confusion due to time zone crossing. See the UAL407 flight status page for this flight to view local times or setup timezone preferences in your user account.

Time Position Orientation Groundspeed Altitude Reporting Facility
EDT Latitude Longitude Course Direction KTS MPH feet Rate Location/Type
10:11PM 41.9333 -87.9167 270° West 161 185 2,500  Level Chicago TRACON
10:14PM 41.9667 -88.3268 270° West  Level FlightAware Approximate
10:14PM 41.9286 -88.0706 268° West 224 258 5,500  Level Chicago Center
10:15PM 41.9667 -88.4691 270° West  Level FlightAware Approximate
10:15PM 41.9503 -88.1594 288° West 249 287 8,500  Level Chicago Center
10:16PM 41.9668 -88.6114 270° West  Level FlightAware Approximate
10:16PM 41.9767 -88.2517 291° West 263 303 10,800  Level Chicago Center
10:17PM 41.9667 -88.7609 270° West  Level FlightAware Approximate
10:17PM 42.0269 -88.3431 307° West 304 350 12,000  Level Chicago Center
10:18PM 42.0589 -88.4631 290° West 347 399 13,700 2,100 Climbing Chicago Center
10:19PM 42.0844 -88.6208 282° West 362 417 16,400 2,160 Climbing Chicago Center
10:20PM 42.0900 -88.7567 273° West 365 420 18,200 1,560 Climbing Chicago Center
10:21PM 42.0922 -88.8944 271° West 384 442 19,600 1,380 Climbing Chicago Center
10:22PM 42.0950 -89.0386 272° West 386 444 21,100 1,380 Climbing Chicago Center
10:23PM 42.1000 -89.1906 273° West 399 459 22,500 1,260 Climbing Chicago Center
10:24PM 42.1050 -89.3417 273° West 403 464 23,700 1,200 Climbing Chicago Center
10:25PM 42.1247 -89.5217 278° West 417 480 25,000 1,140 Climbing Chicago Center
10:26PM 42.1461 -89.6797 280° West 424 488 26,100 960 Climbing Chicago Center
10:27PM 42.1647 -89.8364 279° West 424 488 27,000 840 Climbing Chicago Center
10:28PM 42.1831 -89.9925 279° West 430 495 27,900 840 Climbing Chicago Center
10:29PM 42.2014 -90.1519 279° West 433 498 28,800 960 Climbing Chicago Center
10:30PM 42.2200 -90.3100 279° West 434 499 29,900 1,020 Climbing Chicago Center
10:31PM 42.2386 -90.4661 279° West 428 493 30,900 900 Climbing Chicago Center
10:32PM 42.2572 -90.6219 279° West 425 489 31,800 960 Climbing Chicago Center
10:33PM 42.2781 -90.8092 279° West 423 487 32,900 840 Climbing Chicago Center
10:34PM 42.2953 -90.9639 279° West 421 484 33,600 540 Climbing Chicago Center
10:35PM 42.3103 -91.1203 277° West 423 487 34,000 180 Climbing Chicago Center
10:36PM 42.3272 -91.2725 279° West 416 479 34,000  Level Chicago Center
10:37PM 42.3447 -91.4292 279° West 420 483 34,000  Level Chicago Center
10:38PM 42.3600 -91.5853 278° West 421 484 34,000  Level Chicago Center
10:39PM 42.3767 -91.7422 278° West 422 486 34,000  Level Chicago Center
10:40PM 42.3925 -91.8989 278° West 421 484 34,000  Level Chicago Center
10:41PM 42.4111 -92.0858 278° West 420 483 34,000  Level Chicago Center
10:42PM 42.4189 -92.1514 279° West 422 486 34,000  Level Minneapolis Center
10:43PM 42.4342 -92.3075 278° West 422 486 34,000  Level Minneapolis Center
10:44PM 42.4519 -92.4969 277° West 424 488 34,000  Level Minneapolis Center
10:45PM 42.4672 -92.6531 278° West 424 488 34,000  Level Minneapolis Center
10:46PM 42.4850 -92.8408 277° West 423 487 34,000  Level Minneapolis Center
10:47PM 42.4986 -92.9956 277° West 418 481 34,000  Level Minneapolis Center
10:48PM 42.5136 -93.1522 277° West 422 486 34,000  Level Minneapolis Center
10:49PM 42.5275 -93.3081 277° West 421 484 34,000  Level Minneapolis Center
10:50PM 42.5403 -93.4653 276° West 423 487 34,000  Level Minneapolis Center
10:51PM 42.5569 -93.6203 278° West 420 483 34,000  Level Minneapolis Center
10:52PM 42.5739 -93.8094 277° West 425 489 34,000  Level Minneapolis Center
10:53PM 42.5875 -93.9983 276° West 425 489 34,000  Level Minneapolis Center
10:54PM 42.6008 -94.1539 277° West 421 484 34,000  Level Minneapolis Center
10:55PM 42.6239 -94.3081 282° West 420 483 34,000  Level Minneapolis Center
10:56PM 42.6781 -94.4497 298° West 424 488 34,000  Level Minneapolis Center
10:57PM 42.7447 -94.6044 300° West 424 488 34,000  Level Minneapolis Center
10:58PM 42.8039 -94.7406 301° West 420 483 34,000  Level Minneapolis Center
10:59PM 42.8631 -94.8783 300° West 422 486 34,000  Level Minneapolis Center
11:01PM 42.9211 -95.0153 300° West 420 483 34,000  Level Minneapolis Center
11:02PM 42.9800 -95.1536 300° West 421 484 34,000  Level Minneapolis Center
11:03PM 43.0269 -95.2639 300° West 421 484 34,000  Level Minneapolis Center
11:04PM 43.1078 -95.4581 300° West 420 483 34,000  Level Minneapolis Center
11:05PM 43.1667 -95.5972 300° West 422 486 34,000  Level Minneapolis Center
11:06PM 43.2236 -95.7364 299° West 421 484 34,000  Level Minneapolis Center
11:07PM 43.2806 -95.8733 300° West 417 480 34,000  Level Minneapolis Center
11:08PM 43.3383 -96.0128 300° West 418 481 34,000  Level Minneapolis Center
11:09PM 43.3953 -96.1517 299° West 418 481 34,000  Level Minneapolis Center
11:10PM 43.4525 -96.2917 299° West 419 482 34,000  Level Minneapolis Center
11:11PM 43.5086 -96.4311 299° West 418 481 34,000  Level Minneapolis Center
11:12PM 43.5653 -96.5708 299° West 416 479 34,000  Level Minneapolis Center
11:13PM 43.6439 -96.7678 299° West 418 481 34,000  Level Minneapolis Center
11:14PM 43.7003 -96.9408 294° West 413 475 34,000  Level Minneapolis Center
11:15PM 43.7467 -97.0894 293° West 418 481 34,000  Level Minneapolis Center
11:16PM 43.7925 -97.2344 294° West 414 476 34,000  Level Minneapolis Center
11:17PM 43.8378 -97.3797 293° West 412 474 34,000  Level Minneapolis Center
11:18PM 43.8836 -97.5250 294° West 412 474 34,000  Level Minneapolis Center
11:19PM 43.9275 -97.6686 293° West 408 470 34,000  Level Minneapolis Center
11:20PM 43.9725 -97.8142 293° West 409 471 34,000  Level Minneapolis Center
11:21PM 44.0164 -97.9589 293° West 408 470 34,000  Level Minneapolis Center
11:22PM 44.0606 -98.1022 293° West 406 467 34,000  Level Minneapolis Center
11:23PM 44.1039 -98.2475 293° West 407 468 34,000  Level Minneapolis Center
11:24PM 44.1478 -98.3914 293° West 406 467 34,000  Level Minneapolis Center
11:25PM 44.1986 -98.5622 293° West 401 461 34,000  Level Minneapolis Center
11:26PM 44.2325 -98.6794 292° West 402 463 34,000  Level Minneapolis Center
11:28PM 44.2850 -98.8519 293° West 403 464 34,000  Level Minneapolis Center
11:29PM 44.3267 -98.9967 292° West 402 463 34,000  Level Minneapolis Center
11:30PM 44.3778 -99.1700 292° West 402 463 34,000  Level Minneapolis Center
11:31PM 44.4189 -99.3156 292° West 402 463 34,000  Level Minneapolis Center
11:32PM 44.4614 -99.4619 292° West 405 466 34,000  Level Minneapolis Center
11:33PM 44.5028 -99.6072 292° West 402 463 34,000  Level Minneapolis Center
11:34PM 44.5431 -99.7528 291° West 400 460 34,000  Level Minneapolis Center
11:35PM 44.5839 -99.8981 292° West 399 459 34,000  Level Minneapolis Center
11:36PM 44.6244 -100.0439 291° West 399 459 34,000  Level Minneapolis Center
11:37PM 44.6656 -100.1900 292° West 399 459 34,000  Level Minneapolis Center
11:38PM 44.7061 -100.3367 291° West 399 459 34,000  Level Minneapolis Center
11:39PM 44.7381 -100.4544 291° West 400 460 34,000  Level Minneapolis Center
11:40PM 44.7872 -100.6297 292° West 400 460 34,000  Level Minneapolis Center
11:41PM 44.8267 -100.7772 291° West 400 460 34,000  Level Minneapolis Center
11:42PM 44.8744 -100.9531 291° West 400 460 34,000  Level Minneapolis Center
11:43PM 44.9158 -101.0983 292° West 399 459 34,000  Level Minneapolis Center
11:44PM 44.9547 -101.2439 291° West 397 457 34,000  Level Minneapolis Center
11:45PM 45.0019 -101.4167 291° West 393 452 34,000  Level Minneapolis Center
11:46PM 45.0386 -101.5614 290° West 392 451 34,000  Level Minneapolis Center
11:47PM 45.0772 -101.7072 291° West 394 453 34,000  Level Minneapolis Center
11:48PM 45.1006 -101.8569 283° West 390 449 34,000  Level Minneapolis Center
11:49PM 45.1200 -102.0086 280° West 392 451 34,000  Level Minneapolis Center
11:50PM 45.1414 -102.1608 281° West 393 452 34,000  Level Minneapolis Center
11:51PM 45.1600 -102.3131 280° West 393 452 34,000  Level Minneapolis Center
11:52PM 45.1808 -102.4661 281° West 395 455 34,000  Level Minneapolis Center
11:53PM 45.1992 -102.6192 280° West 394 453 34,000  Level Minneapolis Center
11:54PM 45.2211 -102.7728 282° West 398 458 34,000  Level Minneapolis Center
11:55PM 45.2400 -102.9275 280° West 399 459 34,000  Level Minneapolis Center
11:56PM 45.2628 -103.1114 280° West 395 455 34,000 -60 Level Minneapolis Center
11:57PM 45.2708 -103.1786 280° West 395 455 33,900 -60 Descending Salt Lake Center
11:58PM 45.2939 -103.3675 280° West 403 464 33,900  Level Salt Lake Center
11:59PM 45.3125 -103.5231 280° West 401 461 34,000  Climbing Salt Lake Center
12:00AM 45.3306 -103.6758 280° West 395 455 34,000 -60 Level Salt Lake Center
12:01AM 45.3489 -103.8325 280° West 400 460 33,900 -60 Descending Salt Lake Center
12:02AM 45.3678 -103.9883 280° West 401 461 33,900  Level Salt Lake Center
12:03AM 45.3856 -104.1456 279° West 403 464 33,900  Level Salt Lake Center
12:04AM 45.4033 -104.3036 279° West 406 467 33,900  Level Salt Lake Center
12:05AM 45.4219 -104.4633 279° West 409 471 33,900 420 Level Salt Lake Center
12:06AM 45.4433 -104.6531 279° West 416 479 34,800 780 Climbing Salt Lake Center
12:07AM 45.4608 -104.8092 279° West 417 480 35,500 540 Climbing Salt Lake Center
12:08AM 45.4761 -104.9622 278° West 413 475 36,000 240 Climbing Salt Lake Center
12:09AM 45.4950 -105.1397 279° West 407 468 36,000  Level Salt Lake Center
12:10AM 45.5119 -105.2925 279° West 407 468 36,000  Level Salt Lake Center
12:11AM 45.5272 -105.4450 278° West 406 467 36,000  Level Salt Lake Center
12:12AM 45.5450 -105.6236 278° West 408 470 36,000  Level Salt Lake Center
12:13AM 45.5608 -105.7756 279° West 405 466 36,000  Level Salt Lake Center
12:14AM 45.5761 -105.9281 278° West 405 466 36,000  Level Salt Lake Center
12:15AM 45.5933 -106.1078 278° West 408 470 36,000  Level Salt Lake Center
12:16AM 45.6083 -106.2606 278° West 407 468 36,000  Level Salt Lake Center
12:17AM 45.6253 -106.4386 278° West 406 467 36,000  Level Salt Lake Center
12:18AM 45.6367 -106.5867 276° West 397 457 36,000  Level Salt Lake Center
12:19AM 45.6492 -106.7344 277° West 393 452 36,000  Level Salt Lake Center
12:20AM 45.6675 -106.9111 279° West 398 458 36,000  Level Salt Lake Center
12:22AM 45.6806 -107.0625 277° West 401 461 36,000  Level Salt Lake Center
12:23AM 45.6947 -107.2144 278° West 403 464 36,000  Level Salt Lake Center
12:24AM 45.7097 -107.3889 277° West 399 459 36,000  Level Salt Lake Center
12:25AM 45.7225 -107.5408 277° West 401 461 36,000  Level Salt Lake Center
12:26AM 45.7378 -107.7178 277° West 404 465 36,000  Level Salt Lake Center
12:27AM 45.7503 -107.8708 277° West 406 467 36,000  Level Salt Lake Center
12:28AM 45.7625 -108.0236 277° West 406 467 36,000  Level Salt Lake Center
12:29AM 45.7761 -108.1986 276° West 397 457 36,000 -60 Level Salt Lake Center
12:30AM 45.7875 -108.3467 276° West 393 452 35,900  Descending Salt Lake Center
12:31AM 45.8022 -108.5214 277° West 396 456 36,000  Climbing Salt Lake Center
12:32AM 45.8100 -108.6772 274° West 407 468 36,000  Level Salt Lake Center
12:33AM 45.8144 -108.8269 272° West 396 456 36,000  Level Salt Lake Center
12:34AM 45.8200 -109.0039 273° West 399 459 36,000  Level Salt Lake Center
12:35AM 45.8239 -109.1578 272° West 404 465 36,000  Level Salt Lake Center
12:36AM 45.8281 -109.3100 272° West 401 461 36,000  Level Salt Lake Center
12:37AM 45.8325 -109.4817 272° West 389 448 36,000 -60 Level Salt Lake Center
12:38AM 45.8364 -109.6292 272° West 388 447 35,900  Descending Salt Lake Center
12:39AM 45.8406 -109.8014 272° West 387 445 36,000  Climbing Salt Lake Center
12:40AM 45.8431 -109.9517 271° West 392 451 36,000  Level Salt Lake Center
12:41AM 45.8464 -110.1008 272° West 393 452 36,000  Level Salt Lake Center
12:42AM 45.8489 -110.2756 271° West 392 451 36,000  Level Salt Lake Center
12:43AM 45.8497 -110.4264 271° West 394 453 36,000  Level Salt Lake Center
12:44AM 45.8511 -110.5781 271° West 396 456 36,000  Level Salt Lake Center
12:45AM 45.8536 -110.7231 271° West 389 448 36,000  Level Salt Lake Center
12:46AM 45.8561 -110.9108 271° West 393 452 36,000  Level Salt Lake Center
12:47AM 45.8581 -111.0678 271° West 397 457 36,000  Level Salt Lake Center
12:48AM 45.8597 -111.2233 271° West 405 466 36,000  Level Salt Lake Center
12:49AM 45.8600 -111.3803 270° West 400 460 36,000  Level Salt Lake Center
12:50AM 45.8603 -111.5389 270° West 400 460 36,000  Level Salt Lake Center
12:51AM 45.8608 -111.6978 270° West 400 460 36,000  Level Salt Lake Center
12:52AM 45.8608 -111.8564 270° West 398 458 36,000  Level Salt Lake Center
12:53AM 45.8611 -112.0158 270° West 401 461 36,000  Level Salt Lake Center
12:54AM 45.8611 -112.2083 270° West 402 463 36,000  Level Salt Lake Center
12:55AM 45.8619 -112.3706 270° West 405 466 36,000  Level Salt Lake Center
12:56AM 45.8622 -112.5325 270° West 406 467 36,000  Level Salt Lake Center
12:57AM 45.8628 -112.6950 270° West 408 470 36,000  Level Salt Lake Center
12:58AM 45.8628 -112.8589 270° West 410 472 36,000  Level Salt Lake Center
12:59AM 45.8628 -113.0233 270° West 412 474 36,000  Level Salt Lake Center
01:00AM 45.8631 -113.1850 270° West 407 468 36,000  Level Salt Lake Center
01:01AM 45.8617 -113.3489 269° West 410 472 36,000  Level Salt Lake Center
01:02AM 45.8603 -113.5103 269° West 406 467 36,000  Level Salt Lake Center
01:03AM 45.8597 -113.6658 270° West 409 471 36,000 -60 Level Salt Lake Center
01:04AM 45.8594 -113.8250 270° West 403 464 35,900 -60 Descending Salt Lake Center
01:05AM 45.8583 -113.9847 269° West 402 463 35,900  Level Salt Lake Center
01:06AM 45.8558 -114.1458 269° West 404 465 35,900  Level Salt Lake Center
01:07AM 45.8539 -114.3103 269° West 408 470 36,000  Climbing Salt Lake Center
01:08AM 45.8517 -114.5017 269° West 415 478 36,000  Level Salt Lake Center
01:09AM 45.8497 -114.6608 269° West 417 480 36,000  Level Salt Lake Center
01:10AM 45.8467 -114.8461 269° West 418 481 36,000  Level Salt Lake Center
01:11AM 45.8436 -115.0047 268° West 419 482 36,000  Level Salt Lake Center
01:12AM 45.8403 -115.1636 268° West 417 480 36,000  Level Salt Lake Center
01:13AM 45.8372 -115.3475 269° West 415 478 36,000 -60 Level Salt Lake Center
01:14AM 45.8350 -115.4506 268° West 410 472 35,900 -60 Descending Seattle Center
01:15AM 45.8319 -115.6119 269° West 410 472 35,900 60 Level Seattle Center
01:15AM 45.8308 -115.6583 268° West 410 472 36,000 60 Climbing Salt Lake Center
01:16AM 45.8253 -115.8400 268° West 409 471 36,000 -60 Level Salt Lake Center
01:17AM 45.8228 -115.9361 268° West 407 468 35,900  Descending Seattle Center
01:18AM 45.8189 -116.1003 268° West 411 473 36,000  Climbing Seattle Center
01:19AM 45.8142 -116.2644 268° West 413 475 36,000  Level Seattle Center
01:20AM 45.8094 -116.4278 268° West 412 474 36,000 -60 Level Seattle Center
01:21AM 45.8044 -116.5917 268° West 411 473 35,900 -60 Descending Seattle Center
01:22AM 45.7992 -116.7542 267° West 409 471 35,900  Level Seattle Center
01:23AM 45.7936 -116.9178 267° West 411 473 35,900  Level Seattle Center
01:24AM 45.7872 -117.0814 267° West 413 475 35,900  Level Seattle Center
01:25AM 45.7817 -117.2461 267° West 414 476 36,000  Climbing Seattle Center
01:26AM 45.7758 -117.4097 267° West 412 474 36,000 -60 Level Seattle Center
01:27AM 45.7694 -117.5708 267° West 407 468 35,900 -60 Descending Seattle Center
01:28AM 45.7608 -117.7636 266° West 404 465 35,900  Level Seattle Center
01:29AM 45.7544 -117.9236 267° West 403 464 35,900  Level Seattle Center
01:30AM 45.7472 -118.0814 266° West 399 459 35,900  Level Seattle Center
01:31AM 45.7400 -118.2414 266° West 402 463 36,000  Climbing Seattle Center
01:32AM 45.7328 -118.4006 266° West 400 460 35,900  Descending Seattle Center
01:33AM 45.7250 -118.5589 266° West 400 460 36,000  Climbing Seattle Center
01:34AM 45.7175 -118.7167 266° West 398 458 36,000  Level Seattle Center
01:35AM 45.7089 -118.8753 266° West 402 463 36,000  Level Seattle Center
01:36AM 45.7011 -119.0331 266° West 401 461 36,000  Level Seattle Center
01:37AM 45.6928 -119.1914 266° West 401 461 36,000  Level Seattle Center
01:38AM 45.6842 -119.3514 266° West 405 466 36,000  Level Seattle Center
01:39AM 45.6753 -119.5108 265° West 405 466 36,000  Level Seattle Center
01:40AM 45.6664 -119.6689 265° West 402 463 36,000  Level Seattle Center
01:41AM 45.6569 -119.8256 265° West 398 458 36,000  Level Seattle Center
01:42AM 45.6464 -119.9803 264° West 396 456 36,000  Level Seattle Center
01:43AM 45.6372 -120.1406 265° West 403 464 36,000  Level Seattle Center
01:44AM 45.6278 -120.2989 265° West 404 465 36,000 -60 Level Seattle Center
01:45AM 45.6167 -120.4583 264° West 408 470 35,900 -600 Descending Seattle Center
01:46AM 45.6042 -120.6489 265° West 405 466 34,900 -1,440 Descending Seattle Center
01:47AM 45.5933 -120.8072 264° West 404 465 33,100 -2,340 Descending Seattle Center
01:48AM 45.5828 -120.9675 265° West 410 472 30,200 -2,880 Descending Seattle Center
01:49AM 45.5694 -121.1297 263° West 414 476 27,400 -2,820 Descending Seattle Center
01:50AM 45.5564 -121.2883 263° West 407 468 24,600 -2,820 Descending Seattle Center
01:51AM 45.5528 -121.4031 267° West 399 459 22,600 -2,700 Descending Seattle Center
01:51AM 45.5450 -121.4442 255° West 401 461 21,900 -2,760 Descending Seattle Center
01:52AM 45.5450 -121.4994 270° West 396 456 20,900 -2,820 Descending Seattle Center
01:52AM 45.5331 -121.5997 260° West 397 457 19,100 -2,700 Descending Seattle Center
01:53AM 45.5339 -121.6528 271° West 390 449 18,200 -3,060 Descending Seattle Center
01:53AM 45.5222 -121.7494 260° West 386 444 16,000 -3,480 Descending Seattle Center
01:54AM 45.5211 -121.8094 269° West 389 448 14,700 -2,040 Descending Seattle Center
01:54AM 45.5111 -121.9006 261° West 386 444 14,000 -840 Descending Seattle Center
01:55AM 45.5211 -121.9550 285° West 353 406 13,900 -120 Descending Seattle Center
01:55AM 45.5283 -122.0356 277° West 364 419 13,900 60 Level Seattle Center
01:56AM 45.5358 -122.1000 279° West 353 406 14,000 -240 Climbing Seattle Center
01:56AM 45.5528 -122.1708 289° West 363 418 13,700 -1,140 Descending Seattle Center
01:57AM 45.5728 -122.2267 297° West 349 402 12,900 -2,280 Descending Seattle Center
01:57AM 45.5942 -122.2942 294° West 353 406 11,400 -1,920 Descending Seattle Center
01:58AM 45.6111 -122.3500 293° West 339 390 11,000 -900 Descending Seattle Center
01:58AM 45.6306 -122.4092 295° West 328 377 10,500 -780 Descending Seattle Center
01:59AM 45.6456 -122.4561 295° West 283 326 10,200 -720 Descending Seattle Center
01:59AM 45.6644 -122.5106 296° West 291 335 9,800 -420 Descending Seattle Center
02:00AM 45.6778 -122.5511 295° West 247 284 9,800 -600 Level Seattle Center
02:00AM 45.6936 -122.5975 296° West 252 290 9,200 -1,200 Descending Seattle Center
02:01AM 45.7056 -122.6356 294° West 225 259 8,600 -1,800 Descending Seattle Center
02:01AM 45.7225 -122.6786 299° West 235 270 7,400 -1,980 Descending Seattle Center
02:02AM 45.7361 -122.7222 294° West 231 266 6,600 -1,680 Descending Seattle Center
02:02AM 45.7517 -122.7633 298° West 238 274 5,700 -1,500 Descending Seattle Center
02:03AM 45.7611 -122.8047 288° West 232 267 5,100 -1,320 Descending Seattle Center
02:03AM 45.7517 -122.8439 251° West 235 270 4,400 -1,200 Descending Seattle Center
02:04AM 45.7225 -122.8606 202° Southwest 219 252 3,900 -1,320 Descending Seattle Center
02:04AM 45.6967 -122.8506 165° South 215 247 3,100 -900 Descending Seattle Center
02:05AM 45.6786 -122.8136 125° Southeast 223 257 3,000 -240 Descending Seattle Center
02:05AM 45.6656 -122.7786 118° Southeast 215 247 2,900 -600 Descending Seattle Center
02:06AM 45.6517 -122.7442 120° Southeast 193 222 2,400 -1,020 Descending Seattle Center
02:06AM 45.6392 -122.7117 119° Southeast 204 235 1,900 -1,020 Descending Seattle Center
02:07AM 45.6292 -122.6856 119° Southeast 163 188 1,400 -1,020 Descending Seattle Center
02:07AM 45.6147 -122.6475 118° Southeast 182 209 900 -720 Descending Seattle Center
02:08AM 45.6108 -122.6372 118° Southeast 132 152 700 -300 Descending Seattle Center
02:08AM 45.5953 -122.6022 122° Southeast 172 198 600 -180 Descending Seattle Center